sensor_id;sensor_type;location;lat;lon;timestamp;P1;durP1;ratioP1;P2;durP2;ratioP2
28174;SDS011;59417;44.788;10.334;2023-07-29T00:00:49;4.22;;;2.97;;
28174;SDS011;59417;44.788;10.334;2023-07-29T00:03:19;4.90;;;2.97;;
28174;SDS011;59417;44.788;10.334;2023-07-29T00:05:51;5.50;;;3.38;;
28174;SDS011;59417;44.788;10.334;2023-07-29T00:08:20;4.40;;;3.30;;
28174;SDS011;59417;44.788;10.334;2023-07-29T00:10:48;5.93;;;3.53;;
28174;SDS011;59417;44.788;10.334;2023-07-29T00:13:20;6.50;;;3.60;;
28174;SDS011;59417;44.788;10.334;2023-07-29T00:15:48;6.13;;;3.22;;
28174;SDS011;59417;44.788;10.334;2023-07-29T00:18:18;3.42;;;3.05;;
28174;SDS011;59417;44.788;10.334;2023-07-29T00:20:47;3.88;;;3.10;;
28174;SDS011;59417;44.788;10.334;2023-07-29T00:23:18;6.28;;;3.10;;
28174;SDS011;59417;44.788;10.334;2023-07-29T00:25:47;4.33;;;3.20;;
28174;SDS011;59417;44.788;10.334;2023-07-29T00:28:16;3.67;;;3.13;;
28174;SDS011;59417;44.788;10.334;2023-07-29T00:30:47;7.18;;;3.33;;
28174;SDS011;59417;44.788;10.334;2023-07-29T00:33:16;5.65;;;3.28;;
28174;SDS011;59417;44.788;10.334;2023-07-29T00:35:59;5.50;;;3.47;;
28174;SDS011;59417;44.788;10.334;2023-07-29T00:38:29;4.28;;;3.15;;
28174;SDS011;59417;44.788;10.334;2023-07-29T00:41:02;7.53;;;3.45;;
28174;SDS011;59417;44.788;10.334;2023-07-29T00:43:28;3.75;;;3.22;;
28174;SDS011;59417;44.788;10.334;2023-07-29T00:45:54;6.97;;;3.40;;
28174;SDS011;59417;44.788;10.334;2023-07-29T00:48:22;4.82;;;2.92;;
28174;SDS011;59417;44.788;10.334;2023-07-29T00:50:47;4.32;;;2.90;;
28174;SDS011;59417;44.788;10.334;2023-07-29T00:53:13;4.45;;;3.08;;
28174;SDS011;59417;44.788;10.334;2023-07-29T00:55:39;3.60;;;2.78;;
28174;SDS011;59417;44.788;10.334;2023-07-29T00:58:04;5.68;;;3.03;;
28174;SDS011;59417;44.788;10.334;2023-07-29T01:00:33;4.72;;;3.17;;
28174;SDS011;59417;44.788;10.334;2023-07-29T01:13:58;5.78;;;3.65;;
28174;SDS011;59417;44.788;10.334;2023-07-29T01:16:42;4.05;;;3.45;;
28174;SDS011;59417;44.788;10.334;2023-07-29T01:19:14;7.47;;;3.25;;
28174;SDS011;59417;44.788;10.334;2023-07-29T01:21:56;5.30;;;2.90;;
28174;SDS011;59417;44.788;10.334;2023-07-29T01:24:24;4.07;;;3.55;;
28174;SDS011;59417;44.788;10.334;2023-07-29T01:26:53;6.60;;;2.97;;
28174;SDS011;59417;44.788;10.334;2023-07-29T01:29:21;8.15;;;3.47;;
28174;SDS011;59417;44.788;10.334;2023-07-29T01:31:47;5.80;;;3.25;;
28174;SDS011;59417;44.788;10.334;2023-07-29T01:34:22;5.07;;;3.15;;
28174;SDS011;59417;44.788;10.334;2023-07-29T01:36:51;4.03;;;3.10;;
28174;SDS011;59417;44.788;10.334;2023-07-29T01:39:18;5.88;;;3.72;;
28174;SDS011;59417;44.788;10.334;2023-07-29T01:41:47;4.38;;;3.40;;
28174;SDS011;59417;44.788;10.334;2023-07-29T01:44:13;4.28;;;3.22;;
28174;SDS011;59417;44.788;10.334;2023-07-29T01:46:40;5.18;;;2.92;;
28174;SDS011;59417;44.788;10.334;2023-07-29T01:49:06;5.95;;;3.22;;
28174;SDS011;59417;44.788;10.334;2023-07-29T01:51:36;4.03;;;3.35;;
28174;SDS011;59417;44.788;10.334;2023-07-29T01:54:02;4.90;;;3.55;;
28174;SDS011;59417;44.788;10.334;2023-07-29T01:56:30;3.75;;;3.00;;
28174;SDS011;59417;44.788;10.334;2023-07-29T01:58:56;5.10;;;3.30;;
28174;SDS011;59417;44.788;10.334;2023-07-29T02:01:22;5.72;;;3.47;;
28174;SDS011;59417;44.788;10.334;2023-07-29T02:03:48;6.50;;;3.40;;
28174;SDS011;59417;44.788;10.334;2023-07-29T02:06:19;4.32;;;3.38;;
28174;SDS011;59417;44.788;10.334;2023-07-29T02:11:14;6.32;;;4.05;;
28174;SDS011;59417;44.788;10.334;2023-07-29T02:13:40;5.32;;;3.60;;
28174;SDS011;59417;44.788;10.334;2023-07-29T02:16:06;5.75;;;3.85;;
28174;SDS011;59417;44.788;10.334;2023-07-29T02:18:31;7.53;;;3.72;;
28174;SDS011;59417;44.788;10.334;2023-07-29T02:20:57;7.82;;;3.80;;
28174;SDS011;59417;44.788;10.334;2023-07-29T02:23:23;6.15;;;3.28;;
28174;SDS011;59417;44.788;10.334;2023-07-29T02:25:48;5.50;;;4.05;;
28174;SDS011;59417;44.788;10.334;2023-07-29T02:28:15;6.78;;;4.22;;
28174;SDS011;59417;44.788;10.334;2023-07-29T02:30:41;5.90;;;3.72;;
28174;SDS011;59417;44.788;10.334;2023-07-29T02:33:09;5.37;;;3.50;;
28174;SDS011;59417;44.788;10.334;2023-07-29T02:35:35;7.25;;;3.80;;
28174;SDS011;59417;44.788;10.334;2023-07-29T02:38:01;6.38;;;4.28;;
28174;SDS011;59417;44.788;10.334;2023-07-29T02:40:27;8.07;;;4.38;;
28174;SDS011;59417;44.788;10.334;2023-07-29T02:42:54;5.30;;;4.30;;
28174;SDS011;59417;44.788;10.334;2023-07-29T02:45:20;6.65;;;3.83;;
28174;SDS011;59417;44.788;10.334;2023-07-29T02:47:48;4.35;;;3.95;;
28174;SDS011;59417;44.788;10.334;2023-07-29T02:50:21;7.50;;;4.68;;
28174;SDS011;59417;44.788;10.334;2023-07-29T02:52:47;6.35;;;4.00;;
28174;SDS011;59417;44.788;10.334;2023-07-29T02:55:13;7.18;;;4.15;;
28174;SDS011;59417;44.788;10.334;2023-07-29T02:57:42;4.55;;;4.15;;
28174;SDS011;59417;44.788;10.334;2023-07-29T03:00:08;5.53;;;4.22;;
28174;SDS011;59417;44.788;10.334;2023-07-29T03:02:35;6.70;;;4.72;;
28174;SDS011;59417;44.788;10.334;2023-07-29T03:05:01;4.82;;;3.90;;
28174;SDS011;59417;44.788;10.334;2023-07-29T03:07:27;6.45;;;4.35;;
28174;SDS011;59417;44.788;10.334;2023-07-29T03:09:53;7.13;;;4.45;;
28174;SDS011;59417;44.788;10.334;2023-07-29T03:12:18;6.15;;;4.20;;
28174;SDS011;59417;44.788;10.334;2023-07-29T03:14:49;8.93;;;5.07;;
28174;SDS011;59417;44.788;10.334;2023-07-29T03:17:15;5.68;;;4.32;;
28174;SDS011;59417;44.788;10.334;2023-07-29T03:19:41;8.40;;;3.83;;
28174;SDS011;59417;44.788;10.334;2023-07-29T03:22:09;5.22;;;4.15;;
28174;SDS011;59417;44.788;10.334;2023-07-29T03:24:35;7.80;;;4.60;;
28174;SDS011;59417;44.788;10.334;2023-07-29T03:27:01;9.52;;;5.10;;
28174;SDS011;59417;44.788;10.334;2023-07-29T03:29:26;7.15;;;4.47;;
28174;SDS011;59417;44.788;10.334;2023-07-29T03:31:52;8.70;;;4.25;;
28174;SDS011;59417;44.788;10.334;2023-07-29T03:34:18;6.72;;;4.28;;
28174;SDS011;59417;44.788;10.334;2023-07-29T03:36:46;8.30;;;4.25;;
28174;SDS011;59417;44.788;10.334;2023-07-29T03:39:13;8.25;;;4.43;;
28174;SDS011;59417;44.788;10.334;2023-07-29T03:41:39;7.68;;;4.47;;
28174;SDS011;59417;44.788;10.334;2023-07-29T03:44:05;8.20;;;4.60;;
28174;SDS011;59417;44.788;10.334;2023-07-29T03:46:32;4.30;;;3.38;;
28174;SDS011;59417;44.788;10.334;2023-07-29T03:48:58;4.88;;;4.15;;
28174;SDS011;59417;44.788;10.334;2023-07-29T03:51:24;7.97;;;4.05;;
28174;SDS011;59417;44.788;10.334;2023-07-29T03:53:50;5.95;;;3.92;;
28174;SDS011;59417;44.788;10.334;2023-07-29T03:56:16;5.05;;;4.00;;
28174;SDS011;59417;44.788;10.334;2023-07-29T03:58:42;6.43;;;4.40;;
28174;SDS011;59417;44.788;10.334;2023-07-29T04:01:09;5.65;;;4.80;;
28174;SDS011;59417;44.788;10.334;2023-07-29T04:03:35;7.72;;;4.75;;
28174;SDS011;59417;44.788;10.334;2023-07-29T04:06:01;4.95;;;4.10;;
28174;SDS011;59417;44.788;10.334;2023-07-29T04:08:26;6.55;;;4.78;;
28174;SDS011;59417;44.788;10.334;2023-07-29T04:10:52;6.13;;;4.47;;
28174;SDS011;59417;44.788;10.334;2023-07-29T04:13:18;8.02;;;5.10;;
28174;SDS011;59417;44.788;10.334;2023-07-29T04:15:44;5.32;;;3.90;;
28174;SDS011;59417;44.788;10.334;2023-07-29T04:18:10;10.15;;;4.30;;
28174;SDS011;59417;44.788;10.334;2023-07-29T04:20:36;6.38;;;4.45;;
28174;SDS011;59417;44.788;10.334;2023-07-29T04:23:02;6.78;;;5.00;;
28174;SDS011;59417;44.788;10.334;2023-07-29T04:25:28;7.82;;;4.53;;
28174;SDS011;59417;44.788;10.334;2023-07-29T04:27:54;6.00;;;4.53;;
28174;SDS011;59417;44.788;10.334;2023-07-29T04:30:19;8.52;;;5.18;;
28174;SDS011;59417;44.788;10.334;2023-07-29T04:32:45;8.05;;;5.28;;
28174;SDS011;59417;44.788;10.334;2023-07-29T04:35:13;9.45;;;6.07;;
28174;SDS011;59417;44.788;10.334;2023-07-29T04:37:39;8.55;;;5.28;;
28174;SDS011;59417;44.788;10.334;2023-07-29T04:40:06;8.30;;;6.30;;
28174;SDS011;59417;44.788;10.334;2023-07-29T04:42:32;6.47;;;5.30;;
28174;SDS011;59417;44.788;10.334;2023-07-29T04:44:57;8.73;;;6.38;;
28174;SDS011;59417;44.788;10.334;2023-07-29T04:47:24;7.68;;;5.60;;
28174;SDS011;59417;44.788;10.334;2023-07-29T04:49:49;8.48;;;6.40;;
28174;SDS011;59417;44.788;10.334;2023-07-29T04:52:15;8.50;;;5.78;;
28174;SDS011;59417;44.788;10.334;2023-07-29T04:54:41;10.02;;;5.90;;
28174;SDS011;59417;44.788;10.334;2023-07-29T04:57:07;9.52;;;6.20;;
28174;SDS011;59417;44.788;10.334;2023-07-29T04:59:34;9.10;;;5.88;;
28174;SDS011;59417;44.788;10.334;2023-07-29T05:02:00;10.57;;;6.60;;
28174;SDS011;59417;44.788;10.334;2023-07-29T05:04:26;10.77;;;7.53;;
28174;SDS011;59417;44.788;10.334;2023-07-29T05:06:52;14.43;;;7.78;;
28174;SDS011;59417;44.788;10.334;2023-07-29T05:09:18;8.07;;;6.70;;
28174;SDS011;59417;44.788;10.334;2023-07-29T05:11:45;10.43;;;7.03;;
28174;SDS011;59417;44.788;10.334;2023-07-29T05:14:12;9.70;;;6.70;;
28174;SDS011;59417;44.788;10.334;2023-07-29T05:16:38;11.13;;;8.60;;
28174;SDS011;59417;44.788;10.334;2023-07-29T05:19:04;10.70;;;7.18;;
28174;SDS011;59417;44.788;10.334;2023-07-29T05:21:29;9.23;;;6.65;;
28174;SDS011;59417;44.788;10.334;2023-07-29T05:23:55;12.43;;;8.02;;
28174;SDS011;59417;44.788;10.334;2023-07-29T05:26:21;14.50;;;9.05;;
28174;SDS011;59417;44.788;10.334;2023-07-29T05:28:47;9.95;;;7.78;;
28174;SDS011;59417;44.788;10.334;2023-07-29T05:31:13;9.98;;;7.82;;
28174;SDS011;59417;44.788;10.334;2023-07-29T05:33:39;9.30;;;7.70;;
28174;SDS011;59417;44.788;10.334;2023-07-29T05:36:05;10.70;;;7.97;;
28174;SDS011;59417;44.788;10.334;2023-07-29T05:38:31;11.13;;;8.82;;
28174;SDS011;59417;44.788;10.334;2023-07-29T05:40:56;11.60;;;7.63;;
28174;SDS011;59417;44.788;10.334;2023-07-29T05:43:24;9.35;;;7.07;;
28174;SDS011;59417;44.788;10.334;2023-07-29T05:45:50;13.18;;;8.23;;
28174;SDS011;59417;44.788;10.334;2023-07-29T05:48:30;9.18;;;6.95;;
28174;SDS011;59417;44.788;10.334;2023-07-29T05:50:55;8.15;;;6.13;;
28174;SDS011;59417;44.788;10.334;2023-07-29T05:53:24;8.13;;;6.35;;
28174;SDS011;59417;44.788;10.334;2023-07-29T05:55:50;6.60;;;5.50;;
28174;SDS011;59417;44.788;10.334;2023-07-29T05:58:16;8.90;;;6.40;;
28174;SDS011;59417;44.788;10.334;2023-07-29T06:00:42;9.93;;;6.97;;
28174;SDS011;59417;44.788;10.334;2023-07-29T06:03:07;12.15;;;6.18;;
28174;SDS011;59417;44.788;10.334;2023-07-29T06:05:33;12.32;;;6.38;;
28174;SDS011;59417;44.788;10.334;2023-07-29T06:08:02;9.80;;;6.90;;
28174;SDS011;59417;44.788;10.334;2023-07-29T06:10:28;9.18;;;6.65;;
28174;SDS011;59417;44.788;10.334;2023-07-29T06:12:53;8.27;;;6.57;;
28174;SDS011;59417;44.788;10.334;2023-07-29T06:15:19;10.43;;;5.95;;
28174;SDS011;59417;44.788;10.334;2023-07-29T06:17:48;8.32;;;6.00;;
28174;SDS011;59417;44.788;10.334;2023-07-29T06:20:14;8.95;;;6.13;;
28174;SDS011;59417;44.788;10.334;2023-07-29T06:22:42;9.50;;;6.22;;
28174;SDS011;59417;44.788;10.334;2023-07-29T06:25:08;10.35;;;5.50;;
28174;SDS011;59417;44.788;10.334;2023-07-29T06:27:34;8.07;;;5.82;;
28174;SDS011;59417;44.788;10.334;2023-07-29T06:30:00;10.23;;;5.57;;
28174;SDS011;59417;44.788;10.334;2023-07-29T06:32:26;10.98;;;5.97;;
28174;SDS011;59417;44.788;10.334;2023-07-29T06:34:51;9.45;;;6.40;;
28174;SDS011;59417;44.788;10.334;2023-07-29T06:37:19;11.35;;;7.63;;
28174;SDS011;59417;44.788;10.334;2023-07-29T06:39:45;8.05;;;6.10;;
28174;SDS011;59417;44.788;10.334;2023-07-29T06:42:11;9.32;;;5.35;;
28174;SDS011;59417;44.788;10.334;2023-07-29T06:44:36;9.50;;;5.25;;
28174;SDS011;59417;44.788;10.334;2023-07-29T06:47:02;8.68;;;5.22;;
28174;SDS011;59417;44.788;10.334;2023-07-29T06:49:32;10.13;;;5.72;;
28174;SDS011;59417;44.788;10.334;2023-07-29T06:52:01;7.82;;;5.60;;
28174;SDS011;59417;44.788;10.334;2023-07-29T06:54:26;11.73;;;6.10;;
28174;SDS011;59417;44.788;10.334;2023-07-29T06:56:52;10.75;;;5.28;;
28174;SDS011;59417;44.788;10.334;2023-07-29T06:59:18;7.03;;;4.82;;
28174;SDS011;59417;44.788;10.334;2023-07-29T07:01:43;8.05;;;5.97;;
28174;SDS011;59417;44.788;10.334;2023-07-29T07:04:09;11.52;;;5.68;;
28174;SDS011;59417;44.788;10.334;2023-07-29T07:06:35;8.93;;;6.28;;
28174;SDS011;59417;44.788;10.334;2023-07-29T07:09:00;7.30;;;5.65;;
28174;SDS011;59417;44.788;10.334;2023-07-29T07:11:32;7.45;;;4.85;;
28174;SDS011;59417;44.788;10.334;2023-07-29T07:13:57;7.38;;;5.20;;
28174;SDS011;59417;44.788;10.334;2023-07-29T07:16:23;9.50;;;5.93;;
28174;SDS011;59417;44.788;10.334;2023-07-29T07:18:52;5.53;;;4.93;;
28174;SDS011;59417;44.788;10.334;2023-07-29T07:21:17;8.52;;;5.45;;
28174;SDS011;59417;44.788;10.334;2023-07-29T07:23:43;8.00;;;5.18;;
28174;SDS011;59417;44.788;10.334;2023-07-29T07:26:09;5.85;;;5.07;;
28174;SDS011;59417;44.788;10.334;2023-07-29T07:28:35;8.30;;;5.20;;
28174;SDS011;59417;44.788;10.334;2023-07-29T07:31:00;9.43;;;5.68;;
28174;SDS011;59417;44.788;10.334;2023-07-29T07:33:26;7.20;;;4.20;;
28174;SDS011;59417;44.788;10.334;2023-07-29T07:35:51;5.65;;;4.35;;
28174;SDS011;59417;44.788;10.334;2023-07-29T07:38:17;7.55;;;4.28;;
28174;SDS011;59417;44.788;10.334;2023-07-29T07:40:43;8.20;;;4.93;;
28174;SDS011;59417;44.788;10.334;2023-07-29T07:43:44;5.57;;;4.43;;
28174;SDS011;59417;44.788;10.334;2023-07-29T07:46:10;6.18;;;5.20;;
28174;SDS011;59417;44.788;10.334;2023-07-29T07:48:36;7.90;;;4.63;;
28174;SDS011;59417;44.788;10.334;2023-07-29T07:51:10;6.10;;;4.28;;
28174;SDS011;59417;44.788;10.334;2023-07-29T07:53:36;6.53;;;4.65;;
28174;SDS011;59417;44.788;10.334;2023-07-29T07:56:02;8.30;;;4.47;;
28174;SDS011;59417;44.788;10.334;2023-07-29T07:58:28;5.00;;;4.13;;
28174;SDS011;59417;44.788;10.334;2023-07-29T08:01:00;6.80;;;5.15;;
28174;SDS011;59417;44.788;10.334;2023-07-29T08:03:27;8.52;;;5.43;;
28174;SDS011;59417;44.788;10.334;2023-07-29T08:05:52;6.93;;;4.28;;
28174;SDS011;59417;44.788;10.334;2023-07-29T08:08:19;10.55;;;4.82;;
28174;SDS011;59417;44.788;10.334;2023-07-29T08:10:45;9.82;;;4.80;;
28174;SDS011;59417;44.788;10.334;2023-07-29T08:13:11;9.27;;;4.53;;
28174;SDS011;59417;44.788;10.334;2023-07-29T08:15:39;7.53;;;4.90;;
28174;SDS011;59417;44.788;10.334;2023-07-29T08:18:07;6.05;;;4.00;;
28174;SDS011;59417;44.788;10.334;2023-07-29T08:20:33;8.02;;;4.22;;
28174;SDS011;59417;44.788;10.334;2023-07-29T08:22:59;9.57;;;4.68;;
28174;SDS011;59417;44.788;10.334;2023-07-29T08:25:24;7.70;;;4.68;;
28174;SDS011;59417;44.788;10.334;2023-07-29T08:27:50;7.38;;;4.53;;
28174;SDS011;59417;44.788;10.334;2023-07-29T08:30:16;6.72;;;4.15;;
28174;SDS011;59417;44.788;10.334;2023-07-29T08:32:43;8.32;;;4.35;;
28174;SDS011;59417;44.788;10.334;2023-07-29T08:35:11;9.57;;;5.20;;
28174;SDS011;59417;44.788;10.334;2023-07-29T08:37:36;6.47;;;4.10;;
28174;SDS011;59417;44.788;10.334;2023-07-29T08:40:02;6.05;;;5.20;;
28174;SDS011;59417;44.788;10.334;2023-07-29T08:42:28;9.82;;;4.72;;
28174;SDS011;59417;44.788;10.334;2023-07-29T08:44:56;6.60;;;4.88;;
28174;SDS011;59417;44.788;10.334;2023-07-29T08:47:31;6.60;;;5.45;;
28174;SDS011;59417;44.788;10.334;2023-07-29T08:49:57;7.82;;;4.15;;
28174;SDS011;59417;44.788;10.334;2023-07-29T08:52:24;6.55;;;4.30;;
28174;SDS011;59417;44.788;10.334;2023-07-29T08:54:51;7.82;;;5.00;;
28174;SDS011;59417;44.788;10.334;2023-07-29T08:57:18;8.90;;;5.05;;
28174;SDS011;59417;44.788;10.334;2023-07-29T08:59:48;6.43;;;4.03;;
28174;SDS011;59417;44.788;10.334;2023-07-29T09:02:14;10.10;;;4.53;;
28174;SDS011;59417;44.788;10.334;2023-07-29T09:04:39;9.93;;;5.05;;
28174;SDS011;59417;44.788;10.334;2023-07-29T09:07:05;7.05;;;4.43;;
28174;SDS011;59417;44.788;10.334;2023-07-29T09:09:32;7.05;;;4.35;;
28174;SDS011;59417;44.788;10.334;2023-07-29T09:11:57;6.43;;;4.63;;
28174;SDS011;59417;44.788;10.334;2023-07-29T09:14:23;6.80;;;4.72;;
28174;SDS011;59417;44.788;10.334;2023-07-29T09:16:49;6.28;;;4.75;;
28174;SDS011;59417;44.788;10.334;2023-07-29T09:19:14;7.78;;;4.65;;
28174;SDS011;59417;44.788;10.334;2023-07-29T09:21:40;7.68;;;4.07;;
28174;SDS011;59417;44.788;10.334;2023-07-29T09:24:06;7.65;;;4.95;;
28174;SDS011;59417;44.788;10.334;2023-07-29T09:26:33;6.53;;;4.18;;
28174;SDS011;59417;44.788;10.334;2023-07-29T09:28:59;5.70;;;4.30;;
28174;SDS011;59417;44.788;10.334;2023-07-29T09:31:26;9.13;;;4.75;;
28174;SDS011;59417;44.788;10.334;2023-07-29T09:33:56;4.50;;;4.05;;
28174;SDS011;59417;44.788;10.334;2023-07-29T09:36:25;6.60;;;3.97;;
28174;SDS011;59417;44.788;10.334;2023-07-29T09:38:57;5.10;;;4.15;;
28174;SDS011;59417;44.788;10.334;2023-07-29T09:41:27;6.20;;;4.20;;
28174;SDS011;59417;44.788;10.334;2023-07-29T09:43:59;6.32;;;3.83;;
28174;SDS011;59417;44.788;10.334;2023-07-29T09:46:31;5.80;;;4.05;;
28174;SDS011;59417;44.788;10.334;2023-07-29T09:48:58;5.82;;;4.32;;
28174;SDS011;59417;44.788;10.334;2023-07-29T09:51:27;5.18;;;4.22;;
28174;SDS011;59417;44.788;10.334;2023-07-29T09:53:53;5.63;;;4.10;;
28174;SDS011;59417;44.788;10.334;2023-07-29T09:56:25;6.80;;;4.00;;
28174;SDS011;59417;44.788;10.334;2023-07-29T09:59:35;5.47;;;3.78;;
28174;SDS011;59417;44.788;10.334;2023-07-29T10:02:01;5.05;;;4.10;;
28174;SDS011;59417;44.788;10.334;2023-07-29T10:04:26;8.40;;;4.22;;
28174;SDS011;59417;44.788;10.334;2023-07-29T10:06:52;6.40;;;4.47;;
28174;SDS011;59417;44.788;10.334;2023-07-29T10:09:18;5.63;;;4.18;;
28174;SDS011;59417;44.788;10.334;2023-07-29T10:11:45;5.43;;;4.10;;
28174;SDS011;59417;44.788;10.334;2023-07-29T10:14:11;5.05;;;3.95;;
28174;SDS011;59417;44.788;10.334;2023-07-29T10:16:37;6.53;;;4.13;;
28174;SDS011;59417;44.788;10.334;2023-07-29T10:19:05;6.70;;;4.05;;
28174;SDS011;59417;44.788;10.334;2023-07-29T10:21:32;5.20;;;4.35;;
28174;SDS011;59417;44.788;10.334;2023-07-29T10:23:59;9.98;;;4.22;;
28174;SDS011;59417;44.788;10.334;2023-07-29T10:26:28;7.45;;;5.00;;
28174;SDS011;59417;44.788;10.334;2023-07-29T10:28:56;6.63;;;4.63;;
28174;SDS011;59417;44.788;10.334;2023-07-29T10:31:32;6.88;;;4.65;;
28174;SDS011;59417;44.788;10.334;2023-07-29T10:34:03;7.50;;;4.60;;
28174;SDS011;59417;44.788;10.334;2023-07-29T10:36:29;8.85;;;4.82;;
28174;SDS011;59417;44.788;10.334;2023-07-29T10:38:55;8.40;;;4.18;;
28174;SDS011;59417;44.788;10.334;2023-07-29T10:41:21;8.75;;;4.25;;
28174;SDS011;59417;44.788;10.334;2023-07-29T10:43:47;7.57;;;4.68;;
28174;SDS011;59417;44.788;10.334;2023-07-29T10:46:14;7.07;;;4.97;;
28174;SDS011;59417;44.788;10.334;2023-07-29T10:48:42;8.15;;;5.32;;
28174;SDS011;59417;44.788;10.334;2023-07-29T10:53:57;7.63;;;4.45;;
28174;SDS011;59417;44.788;10.334;2023-07-29T10:56:29;7.28;;;4.18;;
28174;SDS011;59417;44.788;10.334;2023-07-29T10:58:57;7.45;;;3.85;;
28174;SDS011;59417;44.788;10.334;2023-07-29T11:01:28;6.28;;;4.28;;
28174;SDS011;59417;44.788;10.334;2023-07-29T11:04:01;6.65;;;3.58;;
28174;SDS011;59417;44.788;10.334;2023-07-29T11:14:59;7.78;;;4.93;;
28174;SDS011;59417;44.788;10.334;2023-07-29T11:17:27;6.60;;;4.22;;
28174;SDS011;59417;44.788;10.334;2023-07-29T11:19:54;5.55;;;3.92;;
28174;SDS011;59417;44.788;10.334;2023-07-29T11:22:22;5.18;;;4.28;;
28174;SDS011;59417;44.788;10.334;2023-07-29T11:24:49;5.22;;;4.28;;
28174;SDS011;59417;44.788;10.334;2023-07-29T11:27:14;8.07;;;4.38;;
28174;SDS011;59417;44.788;10.334;2023-07-29T11:29:40;7.70;;;4.63;;
28174;SDS011;59417;44.788;10.334;2023-07-29T11:32:06;5.40;;;4.43;;
28174;SDS011;59417;44.788;10.334;2023-07-29T11:34:32;5.45;;;4.22;;
28174;SDS011;59417;44.788;10.334;2023-07-29T11:36:57;7.30;;;4.07;;
28174;SDS011;59417;44.788;10.334;2023-07-29T11:39:23;6.40;;;4.22;;
28174;SDS011;59417;44.788;10.334;2023-07-29T11:41:48;4.32;;;3.80;;
28174;SDS011;59417;44.788;10.334;2023-07-29T11:44:17;5.53;;;4.32;;
28174;SDS011;59417;44.788;10.334;2023-07-29T11:46:43;5.43;;;3.92;;
28174;SDS011;59417;44.788;10.334;2023-07-29T11:49:09;4.88;;;3.95;;
28174;SDS011;59417;44.788;10.334;2023-07-29T11:51:35;5.47;;;3.88;;
28174;SDS011;59417;44.788;10.334;2023-07-29T11:54:01;6.78;;;3.95;;
28174;SDS011;59417;44.788;10.334;2023-07-29T11:56:28;8.35;;;4.50;;
28174;SDS011;59417;44.788;10.334;2023-07-29T11:58:55;4.30;;;3.88;;
28174;SDS011;59417;44.788;10.334;2023-07-29T12:01:21;6.07;;;3.97;;
28174;SDS011;59417;44.788;10.334;2023-07-29T12:03:47;6.13;;;4.53;;
28174;SDS011;59417;44.788;10.334;2023-07-29T12:06:14;4.15;;;3.58;;
28174;SDS011;59417;44.788;10.334;2023-07-29T12:08:40;5.68;;;3.88;;
28174;SDS011;59417;44.788;10.334;2023-07-29T12:11:07;5.80;;;4.07;;
28174;SDS011;59417;44.788;10.334;2023-07-29T12:13:36;6.85;;;4.00;;
28174;SDS011;59417;44.788;10.334;2023-07-29T12:16:06;4.43;;;3.72;;
28174;SDS011;59417;44.788;10.334;2023-07-29T12:18:32;5.57;;;4.47;;
28174;SDS011;59417;44.788;10.334;2023-07-29T12:21:02;4.57;;;3.72;;
28174;SDS011;59417;44.788;10.334;2023-07-29T12:23:28;7.93;;;3.58;;
28174;SDS011;59417;44.788;10.334;2023-07-29T12:26:00;6.07;;;3.70;;
28174;SDS011;59417;44.788;10.334;2023-07-29T12:28:30;6.40;;;3.90;;
28174;SDS011;59417;44.788;10.334;2023-07-29T12:30:56;4.15;;;3.75;;
28174;SDS011;59417;44.788;10.334;2023-07-29T12:33:30;6.40;;;4.03;;
28174;SDS011;59417;44.788;10.334;2023-07-29T12:36:00;8.02;;;3.80;;
28174;SDS011;59417;44.788;10.334;2023-07-29T12:38:27;7.68;;;3.85;;
28174;SDS011;59417;44.788;10.334;2023-07-29T12:40:53;4.78;;;3.78;;
28174;SDS011;59417;44.788;10.334;2023-07-29T12:43:20;4.25;;;3.50;;
28174;SDS011;59417;44.788;10.334;2023-07-29T12:45:45;6.68;;;4.18;;
28174;SDS011;59417;44.788;10.334;2023-07-29T12:48:11;6.00;;;3.88;;
28174;SDS011;59417;44.788;10.334;2023-07-29T12:50:37;5.35;;;3.78;;
28174;SDS011;59417;44.788;10.334;2023-07-29T12:53:09;5.57;;;3.67;;
28174;SDS011;59417;44.788;10.334;2023-07-29T12:55:36;4.07;;;3.33;;
28174;SDS011;59417;44.788;10.334;2023-07-29T12:58:04;6.07;;;3.83;;
28174;SDS011;59417;44.788;10.334;2023-07-29T13:00:30;5.35;;;3.60;;
28174;SDS011;59417;44.788;10.334;2023-07-29T13:02:56;5.53;;;3.67;;
28174;SDS011;59417;44.788;10.334;2023-07-29T13:05:21;5.68;;;3.78;;
28174;SDS011;59417;44.788;10.334;2023-07-29T13:07:47;4.88;;;3.33;;
28174;SDS011;59417;44.788;10.334;2023-07-29T13:10:13;4.25;;;3.63;;
28174;SDS011;59417;44.788;10.334;2023-07-29T13:12:39;4.13;;;3.40;;
28174;SDS011;59417;44.788;10.334;2023-07-29T13:15:05;5.63;;;3.70;;
28174;SDS011;59417;44.788;10.334;2023-07-29T13:17:32;4.25;;;3.53;;
28174;SDS011;59417;44.788;10.334;2023-07-29T13:19:58;7.65;;;3.80;;
28174;SDS011;59417;44.788;10.334;2023-07-29T13:22:24;4.10;;;3.70;;
28174;SDS011;59417;44.788;10.334;2023-07-29T13:24:50;8.50;;;4.15;;
28174;SDS011;59417;44.788;10.334;2023-07-29T13:27:15;5.22;;;3.25;;
28174;SDS011;59417;44.788;10.334;2023-07-29T13:29:41;4.47;;;3.80;;
28174;SDS011;59417;44.788;10.334;2023-07-29T13:32:08;4.13;;;3.65;;
28174;SDS011;59417;44.788;10.334;2023-07-29T13:34:34;4.05;;;3.65;;
28174;SDS011;59417;44.788;10.334;2023-07-29T13:37:00;5.00;;;3.15;;
28174;SDS011;59417;44.788;10.334;2023-07-29T13:39:26;4.88;;;3.60;;
28174;SDS011;59417;44.788;10.334;2023-07-29T13:41:52;5.03;;;3.53;;
28174;SDS011;59417;44.788;10.334;2023-07-29T13:44:18;5.38;;;3.65;;
28174;SDS011;59417;44.788;10.334;2023-07-29T13:46:43;4.85;;;3.58;;
28174;SDS011;59417;44.788;10.334;2023-07-29T13:49:09;7.45;;;3.55;;
28174;SDS011;59417;44.788;10.334;2023-07-29T13:51:35;5.85;;;3.63;;
28174;SDS011;59417;44.788;10.334;2023-07-29T13:54:00;6.28;;;4.00;;
28174;SDS011;59417;44.788;10.334;2023-07-29T13:56:26;5.88;;;3.67;;
28174;SDS011;59417;44.788;10.334;2023-07-29T13:58:52;5.03;;;3.70;;
28174;SDS011;59417;44.788;10.334;2023-07-29T14:01:17;7.07;;;3.88;;
28174;SDS011;59417;44.788;10.334;2023-07-29T14:03:43;4.55;;;3.15;;
28174;SDS011;59417;44.788;10.334;2023-07-29T14:06:09;5.07;;;3.45;;
28174;SDS011;59417;44.788;10.334;2023-07-29T14:08:34;7.35;;;3.40;;
28174;SDS011;59417;44.788;10.334;2023-07-29T14:11:00;3.88;;;3.40;;
28174;SDS011;59417;44.788;10.334;2023-07-29T14:13:26;4.18;;;3.30;;
28174;SDS011;59417;44.788;10.334;2023-07-29T14:15:51;5.68;;;3.28;;
28174;SDS011;59417;44.788;10.334;2023-07-29T14:18:17;8.43;;;3.45;;
28174;SDS011;59417;44.788;10.334;2023-07-29T14:20:43;7.05;;;3.65;;
28174;SDS011;59417;44.788;10.334;2023-07-29T14:23:12;5.75;;;3.75;;
28174;SDS011;59417;44.788;10.334;2023-07-29T14:25:37;5.22;;;3.90;;
28174;SDS011;59417;44.788;10.334;2023-07-29T14:28:06;3.92;;;3.42;;
28174;SDS011;59417;44.788;10.334;2023-07-29T14:30:47;5.57;;;3.92;;
28174;SDS011;59417;44.788;10.334;2023-07-29T14:33:30;5.07;;;3.60;;
28174;SDS011;59417;44.788;10.334;2023-07-29T14:35:56;7.68;;;4.03;;
28174;SDS011;59417;44.788;10.334;2023-07-29T14:38:22;5.00;;;3.80;;
28174;SDS011;59417;44.788;10.334;2023-07-29T14:40:48;4.47;;;3.42;;
28174;SDS011;59417;44.788;10.334;2023-07-29T14:43:18;5.05;;;3.78;;
28174;SDS011;59417;44.788;10.334;2023-07-29T14:45:44;7.55;;;4.18;;
28174;SDS011;59417;44.788;10.334;2023-07-29T14:48:10;5.72;;;3.88;;
28174;SDS011;59417;44.788;10.334;2023-07-29T14:50:38;5.72;;;3.70;;
28174;SDS011;59417;44.788;10.334;2023-07-29T14:53:04;4.32;;;3.75;;
28174;SDS011;59417;44.788;10.334;2023-07-29T14:55:29;6.97;;;3.67;;
28174;SDS011;59417;44.788;10.334;2023-07-29T14:57:55;5.97;;;3.80;;